Impacts TAF Board INFO
FOR SITUATIONAL AWARENESS. NOT TO BE USED FOR FLIGHT PLANNING PURPOSES.
IDs:

KMSY - New Orleans/Armstron, LA, US

Issued at 0818 UTC 17 Aug 2018
Updated at 0932 UTC 17 Aug 2018
Potential Impact None Slight Moderate High
Time<<17/22Z 17/23Z 18/00Z 18/01Z 18/02Z 18/03Z 18/04Z 18/05Z 18/06Z 18/07Z 18/08Z 18/09Z 18/10Z>>
Type PRVL PRVL PRVL PRVL PRVL PRVL PRVL PRVL PRVL PRVL PRVL PRVL PRVL
VIS >6 >6 >6 >6 >6 >6 >6 >6 >6 >6 >6 >6 >6
CIG 200 200 200 250 250 250 250 250 250 250 250 250 250
Cover BKN BKN BKN BKN BKN BKN BKN BKN BKN BKN BKN BKN BKN
FltCat VFR VFR VFR VFR VFR VFR VFR VFR VFR VFR VFR VFR VFR
WX VCTS VCTS VCTS -- -- -- -- -- -- -- -- -- --
WDir 180 180 180 VRB VRB VRB VRB VRB VRB VRB VRB VRB VRB
WSpd 5 5 5 5 5 5 5 5 5 5 5 5 5
WGst -- -- -- -- -- -- -- -- -- -- -- -- --

Raw TAF
KMSY 170818Z 1708/1812 17003KT P6SM VCSH SCT030
  FM171200 20004KT P6SM VCSH SCT025
  TEMPO 1712/1716 3SM TSRA SCT025CB
  FM171600 18005KT P6SM VCTS SCT030CB BKN200
  FM180100 VRB05KT P6SM SCT025 BKN250


METAR Board
Radar Display
Forecast Discussion

FOR SITUATIONAL AWARENESS. NOT TO BE USED FOR FLIGHT PLANNING PURPOSES.